createdAt,value
2022-10-06T00:00:46.731Z,8.47
2022-10-06T00:03:14.115Z,7.83
2022-10-06T00:05:41.734Z,7.47
2022-10-06T00:08:10.418Z,7.20
2022-10-06T00:10:37.950Z,7.03
2022-10-06T00:13:05.387Z,6.80
2022-10-06T00:15:33.498Z,6.60
2022-10-06T00:18:01.821Z,6.80
2022-10-06T00:20:29.816Z,7.40
2022-10-06T00:22:57.259Z,7.03
2022-10-06T00:25:25.499Z,7.13
2022-10-06T00:27:53.281Z,6.70
2022-10-06T00:30:22.099Z,6.83
2022-10-06T00:32:53.716Z,7.10
2022-10-06T00:35:22.163Z,6.63
2022-10-06T00:37:49.592Z,6.90
2022-10-06T00:40:17.059Z,7.23
2022-10-06T00:42:55.072Z,6.80
2022-10-06T00:45:26.955Z,7.00
2022-10-06T00:47:56.056Z,5.83
2022-10-06T00:50:23.524Z,6.47
2022-10-06T00:52:51.018Z,6.03
2022-10-06T00:55:20.338Z,5.97
2022-10-06T00:57:48.689Z,7.23
2022-10-06T01:00:16.134Z,6.17
2022-10-06T01:02:45.734Z,6.33
2022-10-06T01:05:16.058Z,6.57
2022-10-06T01:07:45.020Z,6.70
2022-10-06T01:10:12.403Z,6.07
2022-10-06T01:12:39.975Z,6.83
2022-10-06T01:15:08.169Z,6.30
2022-10-06T01:17:38.481Z,5.90
2022-10-06T01:20:09.165Z,5.77
2022-10-06T01:22:45.627Z,5.20
2022-10-06T01:25:14.882Z,6.03
2022-10-06T01:27:45.821Z,5.33
2022-10-06T01:30:16.969Z,5.90
2022-10-06T01:32:44.513Z,5.27
2022-10-06T01:35:12.103Z,5.77
2022-10-06T01:37:40.640Z,5.37
2022-10-06T01:40:08.362Z,5.10
2022-10-06T01:42:37.051Z,5.30
2022-10-06T01:45:05.464Z,6.20
2022-10-06T01:47:33.686Z,4.90
2022-10-06T01:50:01.419Z,5.03
2022-10-06T01:52:30.487Z,4.93
2022-10-06T01:54:58.121Z,5.47
2022-10-06T01:57:25.493Z,5.17
2022-10-06T01:59:54.975Z,4.70
2022-10-06T02:02:23.864Z,5.07
2022-10-06T02:04:51.254Z,5.27
2022-10-06T02:07:19.479Z,5.47
2022-10-06T02:09:47.527Z,5.67
2022-10-06T02:12:16.658Z,5.70
2022-10-06T02:14:44.130Z,5.50
2022-10-06T02:17:11.571Z,5.67
2022-10-06T02:19:39.094Z,5.90
2022-10-06T02:22:06.516Z,6.10
2022-10-06T02:24:34.323Z,6.83
2022-10-06T02:27:01.738Z,6.87
2022-10-06T02:29:29.438Z,6.80
2022-10-06T02:31:57.219Z,5.93
2022-10-06T02:34:24.981Z,6.20
2022-10-06T02:36:54.213Z,6.90
2022-10-06T02:39:21.716Z,7.03
2022-10-06T02:41:49.144Z,7.20
2022-10-06T02:44:16.620Z,6.77
2022-10-06T02:46:45.669Z,7.63
2022-10-06T02:49:13.763Z,6.93
2022-10-06T02:51:41.365Z,6.40
2022-10-06T02:54:08.830Z,6.97
2022-10-06T02:56:37.967Z,6.80
2022-10-06T02:59:05.433Z,8.23
2022-10-06T03:01:36.120Z,6.83
2022-10-06T03:04:14.372Z,7.50
2022-10-06T03:06:42.939Z,7.87
2022-10-06T03:09:17.737Z,7.03
2022-10-06T03:11:45.731Z,7.43
2022-10-06T03:14:22.593Z,8.23
2022-10-06T03:16:55.056Z,7.63
2022-10-06T03:19:28.271Z,8.87
2022-10-06T03:21:56.294Z,8.43
2022-10-06T03:24:32.330Z,8.90
2022-10-06T03:27:00.443Z,7.17
2022-10-06T03:29:28.045Z,7.33
2022-10-06T03:31:57.224Z,7.50
2022-10-06T03:34:25.124Z,8.00
2022-10-06T03:36:53.206Z,8.87
2022-10-06T03:39:22.700Z,8.30
2022-10-06T03:41:51.015Z,8.60
2022-10-06T03:44:19.025Z,7.60
2022-10-06T03:46:47.260Z,9.10
2022-10-06T03:49:14.702Z,7.87
2022-10-06T03:51:43.209Z,7.63
2022-10-06T03:54:15.696Z,8.43
2022-10-06T03:56:45.916Z,8.43
2022-10-06T03:59:17.496Z,9.17
2022-10-06T04:01:47.974Z,10.07
2022-10-06T04:04:23.588Z,8.80
2022-10-06T04:06:55.183Z,7.20
2022-10-06T04:09:22.855Z,8.63
2022-10-06T04:11:51.861Z,9.57
2022-10-06T04:14:20.659Z,9.23
2022-10-06T04:16:49.272Z,10.87
2022-10-06T04:19:22.264Z,11.03
2022-10-06T04:21:52.571Z,8.57
2022-10-06T04:24:22.722Z,8.60
2022-10-06T04:26:50.945Z,9.00
2022-10-06T04:29:19.317Z,10.20
2022-10-06T04:31:50.952Z,9.02
2022-10-06T04:34:24.444Z,7.83
2022-10-06T04:36:52.180Z,10.30
2022-10-06T04:39:19.395Z,8.57
2022-10-06T04:41:47.640Z,10.67
2022-10-06T04:44:22.303Z,10.57
2022-10-06T04:46:50.492Z,10.87
2022-10-06T04:49:20.784Z,9.63
2022-10-06T04:51:51.144Z,7.97
2022-10-06T04:54:19.483Z,9.90
2022-10-06T04:56:50.061Z,9.50
2022-10-06T04:59:19.434Z,8.73
2022-10-06T05:01:48.178Z,9.10
2022-10-06T05:04:15.170Z,11.77
2022-10-06T05:06:42.896Z,9.97
2022-10-06T05:09:13.628Z,7.97
2022-10-06T05:11:53.739Z,10.07
2022-10-06T05:14:22.018Z,9.23
2022-10-06T05:16:50.281Z,9.30
2022-10-06T05:19:17.546Z,9.90
2022-10-06T05:21:44.622Z,9.30
2022-10-06T05:24:16.541Z,10.00
2022-10-06T05:26:44.123Z,11.23
2022-10-06T05:29:14.209Z,8.07
2022-10-06T05:31:43.704Z,8.93
2022-10-06T05:34:11.831Z,7.23
2022-10-06T05:36:39.469Z,13.20
2022-10-06T05:39:07.879Z,8.43
2022-10-06T05:41:40.301Z,9.93
2022-10-06T05:44:10.786Z,9.53
2022-10-06T05:46:40.046Z,9.23
2022-10-06T05:49:10.546Z,8.17
2022-10-06T05:51:41.194Z,7.97
2022-10-06T05:54:14.543Z,8.17
2022-10-06T05:56:41.710Z,9.10
2022-10-06T05:59:08.753Z,8.43
2022-10-06T06:01:43.425Z,8.13
2022-10-06T06:04:17.800Z,9.50
2022-10-06T06:06:48.939Z,9.00
2022-10-06T06:09:21.534Z,9.53
2022-10-06T06:11:52.823Z,10.30
2022-10-06T06:14:59.329Z,8.07
2022-10-06T06:17:32.733Z,9.50
2022-10-06T06:20:01.844Z,8.00
2022-10-06T06:22:28.966Z,8.50
2022-10-06T06:24:55.996Z,8.83
2022-10-06T06:27:24.257Z,8.07
2022-10-06T06:29:52.708Z,8.27
2022-10-06T06:32:19.765Z,7.03
2022-10-06T06:34:46.856Z,8.23
2022-10-06T06:37:15.400Z,8.37
2022-10-06T06:39:45.267Z,6.80
2022-10-06T06:42:12.516Z,7.80
2022-10-06T06:44:59.865Z,8.10
2022-10-06T06:47:38.020Z,8.07
2022-10-06T06:50:10.434Z,10.13
2022-10-06T06:52:39.177Z,8.00
2022-10-06T06:55:09.425Z,8.87
2022-10-06T06:57:37.062Z,9.00
2022-10-06T07:00:08.190Z,7.17
2022-10-06T07:02:36.967Z,7.67
2022-10-06T07:05:05.973Z,7.00
2022-10-06T07:07:33.127Z,6.70
2022-10-06T07:10:01.114Z,7.90
2022-10-06T07:12:30.858Z,7.13
2022-10-06T07:15:17.442Z,7.50
2022-10-06T07:18:07.154Z,8.50
2022-10-06T07:20:54.274Z,8.50
2022-10-06T07:23:42.517Z,7.40
2022-10-06T07:26:20.801Z,6.97
2022-10-06T07:28:50.903Z,7.63
2022-10-06T07:31:19.266Z,8.40
2022-10-06T07:33:47.741Z,8.27
2022-10-06T07:36:15.481Z,7.33
2022-10-06T07:38:43.731Z,8.03
2022-10-06T07:41:19.679Z,7.60
2022-10-06T07:43:53.879Z,8.10
2022-10-06T07:46:21.528Z,7.37
2022-10-06T07:48:57.187Z,7.07
2022-10-06T07:51:25.137Z,8.17
2022-10-06T07:53:53.745Z,7.33
2022-10-06T07:56:39.848Z,6.83
2022-10-06T07:59:07.031Z,6.23
2022-10-06T08:01:34.074Z,7.23
2022-10-06T08:04:02.562Z,8.33
2022-10-06T08:06:29.613Z,7.40
2022-10-06T08:08:56.732Z,6.80
2022-10-06T08:11:23.954Z,7.83
2022-10-06T08:13:52.166Z,8.07
2022-10-06T08:16:21.842Z,7.90
2022-10-06T08:18:55.047Z,7.73
2022-10-06T08:21:28.038Z,8.63
2022-10-06T08:23:56.791Z,7.10
2022-10-06T08:26:25.700Z,6.30
2022-10-06T08:28:55.342Z,7.07
2022-10-06T08:31:23.558Z,7.63
2022-10-06T08:33:54.882Z,7.93
2022-10-06T08:36:31.427Z,6.40
2022-10-06T08:39:00.323Z,7.70
2022-10-06T08:41:40.305Z,7.37
2022-10-06T08:44:41.287Z,6.87
2022-10-06T08:47:19.363Z,6.23
2022-10-06T08:49:52.299Z,6.73
2022-10-06T08:53:06.180Z,7.97
2022-10-06T08:55:44.828Z,7.23
2022-10-06T08:58:42.297Z,7.23
2022-10-06T09:01:18.906Z,6.33
2022-10-06T09:03:49.031Z,6.40
2022-10-06T09:06:46.252Z,7.53
2022-10-06T09:09:48.508Z,7.73
2022-10-06T09:12:39.582Z,6.27
2022-10-06T09:15:38.444Z,6.50
2022-10-06T09:18:56.167Z,5.83
2022-10-06T09:21:43.420Z,6.17
2022-10-06T09:24:18.396Z,6.30
2022-10-06T09:26:48.592Z,6.90
2022-10-06T09:29:16.723Z,6.10
2022-10-06T09:31:51.276Z,5.77
2022-10-06T09:34:48.669Z,6.70
2022-10-06T09:37:16.310Z,6.17
2022-10-06T09:39:45.744Z,6.80
2022-10-06T09:42:35.721Z,6.70
2022-10-06T09:45:36.811Z,5.93
2022-10-06T09:48:25.179Z,6.77
2022-10-06T09:51:18.341Z,6.30
2022-10-06T09:54:15.897Z,6.97
2022-10-06T09:56:46.141Z,7.20
2022-10-06T09:59:29.770Z,6.20
2022-10-06T10:01:59.860Z,5.30
2022-10-06T10:04:37.449Z,6.03
2022-10-06T10:07:30.602Z,5.77
2022-10-06T10:10:19.988Z,4.80
2022-10-06T10:12:58.309Z,4.57
2022-10-06T10:15:31.358Z,3.13
2022-10-06T10:18:03.146Z,3.73
2022-10-06T10:20:51.956Z,3.80
2022-10-06T10:23:36.397Z,3.63
2022-10-06T10:26:53.821Z,4.20
2022-10-06T10:30:01.757Z,4.00
2022-10-06T10:33:09.313Z,3.60
2022-10-06T10:35:48.572Z,4.17
2022-10-06T10:38:24.868Z,4.13
2022-10-06T10:41:07.387Z,3.47
2022-10-06T10:44:07.534Z,2.97
2022-10-06T10:46:49.954Z,3.63
2022-10-06T10:49:20.436Z,2.97
2022-10-06T10:52:20.363Z,2.73
2022-10-06T10:55:36.052Z,3.10
2022-10-06T10:58:34.260Z,3.00
2022-10-06T11:01:16.682Z,2.40
2022-10-06T11:03:44.210Z,3.10
2022-10-06T11:06:33.917Z,2.83
2022-10-06T11:09:07.132Z,2.83
2022-10-06T11:11:54.763Z,3.60
2022-10-06T11:14:45.602Z,2.77
2022-10-06T11:17:30.209Z,2.83
2022-10-06T11:20:19.319Z,3.10
2022-10-06T11:23:19.695Z,3.23
2022-10-06T11:26:37.735Z,2.43
2022-10-06T11:29:39.173Z,3.40
2022-10-06T11:32:45.165Z,3.27
2022-10-06T11:35:25.941Z,2.43
2022-10-06T11:38:49.420Z,3.53
2022-10-06T11:41:38.111Z,2.80
2022-10-06T11:44:34.482Z,2.50
2022-10-06T11:47:40.526Z,3.07
2022-10-06T11:50:39.512Z,2.73
2022-10-06T11:53:23.183Z,2.47
2022-10-06T11:56:39.482Z,2.50
2022-10-06T11:59:23.381Z,2.10
2022-10-06T12:01:51.569Z,2.47
2022-10-06T12:04:23.569Z,2.63
2022-10-06T12:06:54.266Z,2.47
2022-10-06T12:09:45.510Z,2.90
2022-10-06T12:12:42.541Z,2.93
2022-10-06T12:18:31.677Z,3.00
2022-10-06T12:21:31.647Z,3.00
2022-10-06T12:24:45.320Z,2.53
2022-10-06T12:27:33.676Z,2.80
2022-10-06T12:30:24.477Z,2.60
2022-10-06T12:32:56.610Z,2.43
2022-10-06T12:35:35.645Z,2.77
2022-10-06T12:38:26.551Z,3.03
2022-10-06T12:40:55.710Z,2.67
2022-10-06T12:43:56.036Z,3.00
2022-10-06T12:46:37.691Z,2.57
2022-10-06T12:49:39.240Z,2.50
2022-10-06T12:52:18.896Z,2.70
2022-10-06T12:54:58.493Z,3.07
2022-10-06T12:57:30.854Z,2.63
2022-10-06T12:59:58.293Z,2.47
2022-10-06T13:02:28.687Z,2.50
2022-10-06T13:04:58.650Z,2.77
2022-10-06T13:07:30.273Z,2.83
2022-10-06T13:10:21.185Z,2.33
2022-10-06T13:12:52.270Z,2.70
2022-10-06T13:15:24.117Z,2.50
2022-10-06T13:18:11.223Z,4.00
2022-10-06T13:20:51.309Z,4.78
2022-10-06T13:23:32.024Z,2.75
2022-10-06T13:26:04.283Z,2.40
2022-10-06T13:28:50.224Z,2.60
2022-10-06T13:31:23.330Z,2.55
2022-10-06T13:34:02.616Z,2.60
2022-10-06T13:36:32.687Z,2.03
2022-10-06T13:39:00.001Z,2.95
2022-10-06T13:41:38.167Z,2.92
2022-10-06T13:44:39.635Z,2.47
2022-10-06T13:47:22.673Z,2.50
2022-10-06T13:49:59.632Z,2.90
2022-10-06T13:52:48.975Z,2.47
2022-10-06T13:55:22.976Z,2.50
2022-10-06T13:58:08.626Z,2.38
2022-10-06T14:00:58.215Z,2.85
2022-10-06T14:06:21.461Z,3.30
2022-10-06T14:08:55.144Z,3.80
2022-10-06T14:11:28.208Z,10.23
2022-10-06T14:14:04.889Z,2.58
2022-10-06T14:16:32.356Z,3.22
2022-10-06T14:19:01.395Z,3.13
2022-10-06T14:21:39.546Z,2.80
2022-10-06T14:24:37.495Z,3.00
2022-10-06T14:27:06.869Z,3.00
2022-10-06T14:29:34.398Z,3.10
2022-10-06T14:32:14.881Z,3.00
2022-10-06T14:34:42.618Z,3.67
2022-10-06T14:37:16.613Z,3.13
2022-10-06T14:39:45.288Z,3.05
2022-10-06T14:42:13.437Z,3.15
2022-10-06T14:44:40.542Z,3.47
2022-10-06T14:47:09.387Z,2.85
2022-10-06T14:49:40.649Z,2.70
2022-10-06T14:52:10.604Z,2.67
2022-10-06T14:54:38.060Z,2.97
2022-10-06T14:57:05.091Z,2.78
2022-10-06T14:59:32.752Z,2.72
2022-10-06T15:01:59.776Z,2.60
2022-10-06T15:04:28.026Z,3.10
2022-10-06T15:07:13.559Z,2.45
2022-10-06T15:09:40.753Z,3.15
2022-10-06T15:12:07.810Z,2.35
2022-10-06T15:14:39.643Z,2.70
2022-10-06T15:17:07.309Z,2.77
2022-10-06T15:19:34.445Z,2.90
2022-10-06T15:22:01.654Z,2.60
2022-10-06T15:24:28.836Z,2.60
2022-10-06T15:27:14.658Z,2.60
2022-10-06T15:29:42.575Z,2.80
2022-10-06T15:32:09.689Z,2.30
2022-10-06T15:34:38.005Z,2.43
2022-10-06T15:37:05.793Z,2.43
2022-10-06T15:39:36.161Z,2.43
2022-10-06T15:42:04.119Z,3.57
2022-10-06T15:44:34.879Z,5.43
2022-10-06T15:47:04.217Z,2.63
2022-10-06T15:49:32.982Z,2.47
2022-10-06T15:52:03.214Z,2.50
2022-10-06T15:54:39.536Z,2.57
2022-10-06T15:57:09.513Z,2.17
2022-10-06T15:59:43.546Z,2.97
2022-10-06T16:02:15.923Z,2.40
2022-10-06T16:04:56.597Z,2.27
2022-10-06T16:07:23.859Z,2.70
2022-10-06T16:09:51.614Z,2.40
2022-10-06T16:12:23.375Z,2.77
2022-10-06T16:14:50.508Z,2.43
2022-10-06T16:17:18.096Z,2.30
2022-10-06T16:19:45.293Z,2.33
2022-10-06T16:22:14.877Z,2.83
2022-10-06T16:24:42.204Z,2.40
2022-10-06T16:27:14.208Z,2.77
2022-10-06T16:29:41.546Z,3.10
2022-10-06T16:32:09.232Z,3.10
2022-10-06T16:34:36.357Z,2.80
2022-10-06T16:37:03.470Z,2.70
2022-10-06T16:39:30.519Z,2.27
2022-10-06T16:41:57.540Z,2.57
2022-10-06T16:44:24.693Z,3.30
2022-10-06T16:46:51.808Z,2.70
2022-10-06T16:49:19.825Z,3.00
2022-10-06T16:51:47.045Z,3.20
2022-10-06T16:54:17.130Z,2.83
2022-10-06T16:56:51.602Z,3.17
2022-10-06T16:59:20.615Z,2.73
2022-10-06T17:01:48.928Z,2.73
2022-10-06T17:04:26.089Z,3.00
2022-10-06T17:06:57.272Z,3.17
2022-10-06T17:09:29.235Z,2.63
2022-10-06T17:12:01.488Z,2.93
2022-10-06T17:14:31.060Z,4.10
2022-10-06T17:16:58.909Z,3.43
2022-10-06T17:19:28.564Z,3.33
2022-10-06T17:21:59.504Z,3.17
2022-10-06T17:24:28.944Z,3.23
2022-10-06T17:26:57.231Z,3.30
2022-10-06T17:29:26.479Z,3.00
2022-10-06T17:31:59.267Z,3.27
2022-10-06T17:34:31.856Z,3.27
2022-10-06T17:37:01.203Z,3.07
2022-10-06T17:39:28.336Z,3.17
2022-10-06T17:41:55.454Z,3.43
2022-10-06T17:44:26.209Z,3.50
2022-10-06T17:46:58.174Z,3.00
2022-10-06T17:49:25.745Z,3.47
2022-10-06T17:51:54.809Z,2.90
2022-10-06T17:54:24.357Z,3.20
2022-10-06T17:56:53.575Z,3.50
2022-10-06T17:59:31.240Z,4.03
2022-10-06T18:02:01.066Z,3.27
2022-10-06T18:04:28.992Z,2.83
2022-10-06T18:06:57.144Z,3.37
2022-10-06T18:09:24.673Z,3.20
2022-10-06T18:11:56.842Z,3.67
2022-10-06T18:14:26.810Z,3.73
2022-10-06T18:16:57.875Z,2.97
2022-10-06T18:19:30.893Z,3.77
2022-10-06T18:22:17.803Z,3.50
2022-10-06T18:24:45.261Z,3.27
2022-10-06T18:27:13.880Z,3.67
2022-10-06T18:29:40.893Z,3.67
2022-10-06T18:33:10.825Z,4.30
2022-10-06T18:37:43.148Z,3.63
2022-10-06T18:40:11.226Z,3.60
2022-10-06T18:42:39.262Z,3.63
2022-10-06T18:45:26.899Z,3.47
2022-10-06T18:48:12.474Z,3.00
2022-10-06T18:50:39.642Z,3.47
2022-10-06T18:53:06.802Z,3.63
2022-10-06T18:55:35.150Z,3.53
2022-10-06T18:58:02.674Z,4.13
2022-10-06T19:00:29.796Z,3.90
2022-10-06T19:02:56.981Z,3.60
2022-10-06T19:05:24.335Z,4.13
2022-10-06T19:07:53.940Z,3.97
2022-10-06T19:10:21.441Z,4.10
2022-10-06T19:12:48.628Z,4.17
2022-10-06T19:15:20.326Z,3.53
2022-10-06T19:17:49.075Z,4.20
2022-10-06T19:20:16.881Z,3.80
2022-10-06T19:22:43.934Z,3.20
2022-10-06T19:25:11.530Z,3.83
2022-10-06T19:27:38.613Z,3.60
2022-10-06T19:30:07.100Z,3.83
2022-10-06T19:32:34.728Z,3.33
2022-10-06T19:35:06.368Z,3.63
2022-10-06T19:37:36.622Z,3.73
2022-10-06T19:40:05.509Z,3.53
2022-10-06T19:42:48.006Z,3.77
2022-10-06T19:45:16.273Z,3.67
2022-10-06T19:47:45.259Z,3.70
2022-10-06T19:50:13.597Z,3.77
2022-10-06T19:52:42.121Z,3.90
2022-10-06T19:55:09.438Z,3.60
2022-10-06T19:57:36.654Z,3.37
2022-10-06T20:00:05.319Z,3.77
2022-10-06T20:02:42.520Z,3.60
2022-10-06T20:05:12.322Z,3.37
2022-10-06T20:07:40.517Z,3.70
2022-10-06T20:10:08.144Z,4.10
2022-10-06T20:12:36.052Z,3.53
2022-10-06T20:15:03.543Z,2.97
2022-10-06T20:17:31.256Z,3.63
2022-10-06T20:19:58.850Z,3.97
2022-10-06T20:22:26.566Z,4.20
2022-10-06T20:24:54.199Z,4.30
2022-10-06T20:27:21.328Z,3.83
2022-10-06T20:29:48.814Z,3.50
2022-10-06T20:32:15.874Z,3.93
2022-10-06T20:34:42.933Z,3.70
2022-10-06T20:37:09.948Z,4.20
2022-10-06T20:39:55.402Z,4.00
2022-10-06T20:42:22.501Z,3.20
2022-10-06T20:44:49.901Z,3.73
2022-10-06T20:47:16.930Z,4.33
2022-10-06T20:49:44.589Z,4.53
2022-10-06T20:52:14.609Z,3.80
2022-10-06T20:54:42.153Z,4.27
2022-10-06T20:57:09.631Z,5.07
2022-10-06T20:59:37.486Z,4.77
2022-10-06T21:02:06.115Z,4.67
2022-10-06T21:04:34.775Z,4.30
2022-10-06T21:07:05.922Z,4.57
2022-10-06T21:09:33.243Z,3.93
2022-10-06T21:12:00.383Z,4.10
2022-10-06T21:14:27.444Z,4.50
2022-10-06T21:16:54.730Z,3.80
2022-10-06T21:19:21.855Z,4.43
2022-10-06T21:21:53.581Z,3.90
2022-10-06T21:24:21.108Z,4.23
2022-10-06T21:26:48.829Z,4.60
2022-10-06T21:29:16.420Z,4.20
2022-10-06T21:31:44.862Z,3.60
2022-10-06T21:34:14.411Z,4.13
2022-10-06T21:36:43.470Z,3.90
2022-10-06T21:39:11.338Z,4.40
2022-10-06T21:41:39.744Z,3.77
2022-10-06T21:44:14.977Z,4.10
2022-10-06T21:46:47.031Z,4.17
2022-10-06T21:49:16.670Z,4.43
2022-10-06T21:51:48.533Z,4.30
2022-10-06T21:54:16.156Z,4.33
2022-10-06T21:56:43.452Z,4.33
2022-10-06T21:59:11.395Z,4.53
2022-10-06T22:01:41.710Z,4.43
2022-10-06T22:04:10.014Z,3.87
2022-10-06T22:06:37.591Z,3.77
2022-10-06T22:09:06.564Z,4.33
2022-10-06T22:11:36.890Z,4.13
2022-10-06T22:14:06.204Z,4.80
2022-10-06T22:16:34.894Z,4.43
2022-10-06T22:19:04.161Z,4.00
2022-10-06T22:21:34.198Z,4.30
2022-10-06T22:24:07.039Z,4.10
2022-10-06T22:26:37.584Z,4.60
2022-10-06T22:29:09.702Z,4.07
2022-10-06T22:31:39.357Z,4.70
2022-10-06T22:34:07.587Z,4.33
2022-10-06T22:36:35.125Z,4.80
2022-10-06T22:39:02.933Z,4.60
2022-10-06T22:41:30.391Z,4.70
2022-10-06T22:43:58.677Z,4.53
2022-10-06T22:46:28.102Z,3.90
2022-10-06T22:48:55.205Z,4.70
2022-10-06T22:51:22.326Z,4.10
2022-10-06T22:53:57.633Z,4.03
2022-10-06T22:56:26.470Z,4.83
2022-10-06T22:58:53.482Z,5.03
2022-10-06T23:01:20.601Z,6.00
2022-10-06T23:03:47.786Z,5.77
2022-10-06T23:06:17.027Z,5.40
2022-10-06T23:08:44.739Z,5.87
2022-10-06T23:11:18.013Z,5.90
2022-10-06T23:13:45.694Z,6.03
2022-10-06T23:16:15.676Z,4.87
2022-10-06T23:18:43.987Z,5.93
2022-10-06T23:21:19.393Z,5.67
2022-10-06T23:23:47.918Z,4.80
2022-10-06T23:26:16.500Z,5.23
2022-10-06T23:28:43.682Z,5.73
2022-10-06T23:31:11.236Z,6.07
2022-10-06T23:33:38.402Z,4.80
2022-10-06T23:36:10.730Z,5.47
2022-10-06T23:38:39.449Z,5.00
2022-10-06T23:41:07.591Z,5.33
2022-10-06T23:43:35.185Z,6.70
2022-10-06T23:46:02.969Z,5.93
2022-10-06T23:48:30.242Z,6.40
2022-10-06T23:51:09.072Z,6.00
2022-10-06T23:53:36.582Z,5.60
2022-10-06T23:56:04.599Z,5.60
2022-10-06T23:58:32.159Z,6.30
